Time;durP1;ratioP1;P1;durP2;ratioP2;P2;SDS_P1;SDS_P2;PMS_P1;PMS_P2;Temp;Humidity;BMP_temperature;BMP_pressure;BME280_temperature;BME280_humidity;BME280_pressure;Samples;Min_cycle;Max_cycle;Signal;HPM_P1;HPM_P2
2023/07/17 00:02:15;;;;;;;4.93;2.33;;;;;;;;;;5008315;28;19990;-82
2023/07/17 00:04:41;;;;;;;9.38;2.78;;;;;;;;;;4966027;28;20141;-82
2023/07/17 00:07:07;;;;;;;;;;;;;;;;;;5005311;28;20452;-82
2023/07/17 00:09:33;;;;;;;5.63;2.45;;;;;;;;;;5005092;28;20016;-82
2023/07/17 00:11:59;;;;;;;;;;;;;;;;;;5019973;28;20054;-82
2023/07/17 00:14:25;;;;;;;5.97;2.70;;;;;;;;;;5021625;28;20397;-82
2023/07/17 00:16:51;;;;;;;;;;;;;;;;;;5008965;28;20056;-82
2023/07/17 00:19:17;;;;;;;5.45;2.50;;;;;;;;;;5023612;28;19926;-82
2023/07/17 00:21:43;;;;;;;;;;;;;;;;;;4987991;28;20073;-82
2023/07/17 00:24:09;;;;;;;6.07;2.58;;;;;;;;;;4988208;28;19930;-82
2023/07/17 00:26:35;;;;;;;;;;;;;;;;;;4983300;28;20462;-82
2023/07/17 00:29:22;;;;;;;6.82;2.50;;;;;;;;;;5024317;28;19981;-82
2023/07/17 00:31:48;;;;;;;6.85;2.55;;;;;;;;;;4992381;28;20057;-82
2023/07/17 00:34:14;;;;;;;;;;;;;;;;;;4991138;28;20497;-82
2023/07/17 00:36:40;;;;;;;5.07;2.25;;;;;;;;;;5024466;28;19925;-82
2023/07/17 00:39:06;;;;;;;;;;;;;;;;;;4975373;28;20119;-82
2023/07/17 00:41:32;;;;;;;8.55;2.70;;;;;;;;;;4991503;28;19925;-82
2023/07/17 00:43:58;;;;;;;;;;;;;;;;;;4991477;28;20046;-82
2023/07/17 00:46:24;;;;;;;8.90;2.58;;;;;;;;;;4974289;28;19932;-82
2023/07/17 00:48:50;;;;;;;;;;;;;;;;;;4973918;28;20461;-82
2023/07/17 00:51:16;;;;;;;5.68;2.80;;;;;;;;;;4999550;28;20004;-82
2023/07/17 00:53:42;;;;;;;;;;;;;;;;;;5008083;28;20052;-82
2023/07/17 00:56:08;;;;;;;5.57;2.40;;;;;;;;;;5007041;28;19921;-82
2023/07/17 00:58:34;;;;;;;;;;;;;;;;;;4966841;28;20038;-82
2023/07/17 01:01:01;;;;;;;7.00;2.60;;;;;;;;;;5004863;28;19921;-78
2023/07/17 01:03:27;;;;;;;4.93;2.40;;;;;;;;;;4938620;28;20054;-78
2023/07/17 01:05:53;;;;;;;;;;;;;;;;;;5005104;28;20080;-78
2023/07/17 01:08:19;;;;;;;5.63;2.70;;;;;;;;;;4989525;28;20386;-78
2023/07/17 01:10:45;;;;;;;;;;;;;;;;;;4971336;28;20082;-78
2023/07/17 01:13:11;;;;;;;8.43;2.42;;;;;;;;;;5075535;28;19970;-78
2023/07/17 01:15:37;;;;;;;7.35;2.50;;;;;;;;;;5093459;28;20043;-78
2023/07/17 01:18:03;;;;;;;;;;;;;;;;;;5093020;28;20047;-78
2023/07/17 01:20:29;;;;;;;6.13;2.80;;;;;;;;;;5076387;28;19941;-78
2023/07/17 01:22:55;;;;;;;;;;;;;;;;;;5093681;28;20123;-78
2023/07/17 01:25:21;;;;;;;7.50;2.85;;;;;;;;;;5092595;28;20018;-78
2023/07/17 01:27:47;;;;;;;;;;;;;;;;;;5031013;28;20056;-78
2023/07/17 01:30:13;;;;;;;7.57;2.67;;;;;;;;;;5006797;28;19921;-78
2023/07/17 01:32:39;;;;;;;7.57;3.03;;;;;;;;;;4974744;28;20053;-78
2023/07/17 01:35:05;;;;;;;;;;;;;;;;;;4991149;28;20050;-78
2023/07/17 01:37:31;;;;;;;7.55;2.75;;;;;;;;;;5019277;28;19985;-78
2023/07/17 01:39:57;;;;;;;;;;;;;;;;;;4975092;28;20081;-78
2023/07/17 01:42:23;;;;;;;11.77;2.95;;;;;;;;;;5004551;28;19979;-78
2023/07/17 01:44:49;;;;;;;;;;;;;;;;;;4941234;28;20054;-78
2023/07/17 01:47:15;;;;;;;9.75;2.78;;;;;;;;;;5006771;28;19921;-78
2023/07/17 01:49:41;;;;;;;;;;;;;;;;;;5006471;28;20487;-78
2023/07/17 01:52:08;;;;;;;6.97;2.83;;;;;;;;;;5023534;28;19929;-77
2023/07/17 01:54:35;;;;;;;7.35;3.15;;;;;;;;;;4974291;28;20042;-76
2023/07/17 01:57:01;;;;;;;5.82;2.65;;;;;;;;;;4988150;28;20100;-77
2023/07/17 01:59:27;;;;;;;;;;;;;;;;;;4964572;28;20057;-77
2023/07/17 02:01:53;;;;;;;12.40;3.75;;;;;;;;;;5002756;28;19933;-77
2023/07/17 02:04:19;;;;;;;;;;;;;;;;;;5006066;28;20057;-77
2023/07/17 02:06:45;;;;;;;5.78;2.50;;;;;;;;;;5006987;28;19974;-77
2023/07/17 02:09:11;;;;;;;;;;;;;;;;;;4973417;28;20062;-79
2023/07/17 02:11:37;;;;;;;8.93;3.05;;;;;;;;;;4986682;28;19929;-78
2023/07/17 02:14:03;;;;;;;;;;;;;;;;;;4987556;28;20047;-77
2023/07/17 02:16:29;;;;;;;7.00;2.85;;;;;;;;;;4986990;28;19922;-78
2023/07/17 02:18:55;;;;;;;;;;;;;;;;;;4999445;28;20049;-76
2023/07/17 02:21:21;;;;;;;9.43;3.13;;;;;;;;;;5015666;28;19922;-76
2023/07/17 02:23:48;;;;;;;8.55;3.13;;;;;;;;;;4987223;28;20046;-76
2023/07/17 02:26:14;;;;;;;;;;;;;;;;;;5003244;28;20157;-79
2023/07/17 02:28:40;;;;;;;6.10;3.03;;;;;;;;;;4986776;28;19926;-77
2023/07/17 02:31:06;;;;;;;9.10;2.97;;;;;;;;;;5003484;28;20055;-77
2023/07/17 02:33:32;;;;;;;;;;;;;;;;;;4948546;28;20134;-77
2023/07/17 02:35:58;;;;;;;12.55;3.15;;;;;;;;;;5004042;28;20009;-77
2023/07/17 02:38:24;;;;;;;;;;;;;;;;;;4990250;28;20054;-76
2023/07/17 02:40:50;;;;;;;9.27;3.55;;;;;;;;;;5006945;28;19922;-78
2023/07/17 02:43:16;;;;;;;;;;;;;;;;;;4990216;28;20060;-79
2023/07/17 02:45:42;;;;;;;8.00;3.85;;;;;;;;;;5003935;28;20012;-77
2023/07/17 02:48:08;;;;;;;;;;;;;;;;;;4989835;28;20046;-77
2023/07/17 02:50:34;;;;;;;9.13;3.30;;;;;;;;;;4989819;28;19928;-77
2023/07/17 02:53:00;;;;;;;;;;;;;;;;;;4958592;28;20046;-77
2023/07/17 02:55:26;;;;;;;10.18;3.00;;;;;;;;;;5025519;28;20334;-76
2023/07/17 02:57:51;;;;;;;;;;;;;;;;;;4992981;28;20095;-76
2023/07/17 03:00:18;;;;;;;10.02;3.17;;;;;;;;;;5006674;28;19921;-79
2023/07/17 03:02:45;;;;;;;8.82;3.40;;;;;;;;;;4976102;28;20474;-77
2023/07/17 03:05:11;;;;;;;7.93;3.15;;;;;;;;;;4993384;28;20049;-77
2023/07/17 03:07:56;;;;;;;7.55;3.28;;;;;;;;;;4967986;28;20046;-76
2023/07/17 03:10:22;;;;;;;8.32;3.47;;;;;;;;;;5005829;28;20054;-77
2023/07/17 03:12:48;;;;;;;7.75;3.35;;;;;;;;;;4941079;28;20110;-77
2023/07/17 03:15:14;;;;;;;;;;;;;;;;;;4990392;28;20042;-76
2023/07/17 03:17:40;;;;;;;10.45;3.67;;;;;;;;;;5009165;28;20447;-79
2023/07/17 03:20:08;;;;;;;;;;;;;;;;;;5009736;28;20046;-77
2023/07/17 03:22:35;;;;;;;9.40;3.85;;;;;;;;;;4979361;28;20397;-77
2023/07/17 03:25:01;;;;;;;;;;;;;;;;;;4990081;28;20050;-77
2023/07/17 03:27:27;;;;;;;9.63;4.18;;;;;;;;;;5005098;28;19929;-77
2023/07/17 03:29:53;;;;;;;;;;;;;;;;;;5006122;28;20072;-77
2023/07/17 03:32:19;;;;;;;8.38;3.85;;;;;;;;;;4989387;28;20564;-77
2023/07/17 03:34:44;;;;;;;;;;;;;;;;;;4948199;28;20053;-76
2023/07/17 03:37:12;;;;;;;7.90;4.00;;;;;;;;;;5008784;28;19926;-77
2023/07/17 03:39:38;;;;;;;9.90;4.55;;;;;;;;;;4969676;28;20165;-77
2023/07/17 03:42:10;;;;;;;;;;;;;;;;;;4989440;28;20133;-77
2023/07/17 03:44:36;;;;;;;10.27;3.95;;;;;;;;;;4961279;28;20441;-77
2023/07/17 03:47:02;;;;;;;;;;;;;;;;;;4954111;28;20047;-76
2023/07/17 03:49:28;;;;;;;11.48;4.45;;;;;;;;;;4996524;28;20371;-76
2023/07/17 03:51:54;;;;;;;;;;;;;;;;;;4989785;28;20050;-77
2023/07/17 03:54:20;;;;;;;12.18;4.93;;;;;;;;;;4970678;28;19926;-78
2023/07/17 03:56:46;;;;;;;;;;;;;;;;;;4937814;28;20046;-76
2023/07/17 03:59:12;;;;;;;11.18;4.20;;;;;;;;;;4985455;28;19980;-76
2023/07/17 04:01:38;;;;;;;8.60;3.97;;;;;;;;;;5016613;28;20097;-76
2023/07/17 04:04:05;;;;;;;12.40;4.38;;;;;;;;;;4987470;28;20060;-76
2023/07/17 04:06:31;;;;;;;13.30;4.50;;;;;;;;;;4969179;28;20145;-76
2023/07/17 04:08:57;;;;;;;10.77;4.15;;;;;;;;;;4953533;28;20039;-77
2023/07/17 04:11:24;;;;;;;;;;;;;;;;;;4969283;28;20059;-79
2023/07/17 04:13:53;;;;;;;13.57;4.20;;;;;;;;;;4953082;28;19922;-77
2023/07/17 04:16:20;;;;;;;9.10;3.67;;;;;;;;;;4953347;28;20047;-77
2023/07/17 04:18:46;;;;;;;11.43;4.15;;;;;;;;;;4967956;28;20112;-76
2023/07/17 04:21:12;;;;;;;12.27;3.97;;;;;;;;;;4969410;28;20051;-76
2023/07/17 04:23:38;;;;;;;;;;;;;;;;;;4988767;28;20050;-77
2023/07/17 04:26:05;;;;;;;11.65;4.38;;;;;;;;;;4972227;28;20271;-76
2023/07/17 04:28:31;;;;;;;10.80;4.30;;;;;;;;;;4991268;28;20086;-76
2023/07/17 04:30:57;;;;;;;16.23;4.20;;;;;;;;;;4985639;28;20165;-77
2023/07/17 04:33:23;;;;;;;;;;;;;;;;;;4956208;28;20042;-78
2023/07/17 04:35:49;;;;;;;11.07;3.72;;;;;;;;;;4972279;28;19966;-77
2023/07/17 04:38:21;;;;;;;9.88;4.25;;;;;;;;;;4987431;28;20172;-77
2023/07/17 04:40:47;;;;;;;;;;;;;;;;;;4937322;28;20091;-77
2023/07/17 04:43:13;;;;;;;14.15;4.18;;;;;;;;;;4984749;28;19922;-77
2023/07/17 04:45:39;;;;;;;;;;;;;;;;;;4955851;28;20046;-76
2023/07/17 04:48:05;;;;;;;9.63;3.83;;;;;;;;;;4971268;28;19944;-76
2023/07/17 04:50:31;;;;;;;9.15;3.78;;;;;;;;;;4971710;28;20050;-76
2023/07/17 04:52:57;;;;;;;;;;;;;;;;;;4988756;28;20061;-77
2023/07/17 04:55:23;;;;;;;10.20;3.92;;;;;;;;;;4960982;28;19922;-77
2023/07/17 04:57:49;;;;;;;11.45;3.58;;;;;;;;;;4962960;28;20068;-76
2023/07/17 05:00:16;;;;;;;13.23;4.30;;;;;;;;;;4970477;28;20082;-77
2023/07/17 05:02:43;;;;;;;9.80;3.72;;;;;;;;;;4983416;28;20051;-77
2023/07/17 05:05:09;;;;;;;13.80;4.57;;;;;;;;;;4968470;28;20085;-76
2023/07/17 05:07:35;;;;;;;9.55;3.90;;;;;;;;;;5001772;28;20046;-76
2023/07/17 05:10:03;;;;;;;13.32;4.45;;;;;;;;;;4978361;28;20050;-76
2023/07/17 05:12:29;;;;;;;11.25;4.40;;;;;;;;;;4984293;28;20051;-79
2023/07/17 05:14:55;;;;;;;;;;;;;;;;;;4952536;28;20050;-76
2023/07/17 05:17:21;;;;;;;15.32;4.47;;;;;;;;;;4977568;28;19926;-76
2023/07/17 05:19:47;;;;;;;;;;;;;;;;;;4986752;28;20060;-76
2023/07/17 05:22:13;;;;;;;16.33;4.60;;;;;;;;;;4988034;28;19921;-77
2023/07/17 05:24:39;;;;;;;;;;;;;;;;;;5003750;28;20507;-76
2023/07/17 05:27:05;;;;;;;11.75;4.32;;;;;;;;;;4970486;28;19921;-76
2023/07/17 05:29:31;;;;;;;12.63;3.95;;;;;;;;;;4969649;28;20775;-77
2023/07/17 05:31:57;;;;;;;;;;;;;;;;;;4988562;28;20063;-77
2023/07/17 05:34:23;;;;;;;12.88;3.85;;;;;;;;;;4983198;28;19926;-76
2023/07/17 05:36:49;;;;;;;;;;;;;;;;;;4968140;28;20145;-77
2023/07/17 05:39:15;;;;;;;13.70;3.83;;;;;;;;;;4968008;28;20527;-77
2023/07/17 05:41:41;;;;;;;;;;;;;;;;;;4967874;28;20061;-81
2023/07/17 05:44:07;;;;;;;8.60;3.35;;;;;;;;;;4984400;28;19926;-80
2023/07/17 05:46:33;;;;;;;;;;;;;;;;;;4968257;28;20070;-81
2023/07/17 05:48:59;;;;;;;11.85;3.83;;;;;;;;;;4967602;28;20021;-81
2023/07/17 05:51:25;;;;;;;;;;;;;;;;;;5001834;28;20484;-83
2023/07/17 05:53:51;;;;;;;10.02;4.05;;;;;;;;;;4967850;28;20024;-83
2023/07/17 05:56:17;;;;;;;;;;;;;;;;;;4968146;28;20137;-81
2023/07/17 05:58:43;;;;;;;13.40;4.40;;;;;;;;;;4967581;28;20070;-82
2023/07/17 06:01:09;;;;;;;16.98;4.43;;;;;;;;;;4987936;28;20050;-82
2023/07/17 06:03:35;;;;;;;;;;;;;;;;;;5003010;28;20509;-81
2023/07/17 06:06:03;;;;;;;13.23;3.97;;;;;;;;;;4986907;28;19984;-80
2023/07/17 06:08:29;;;;;;;10.80;4.30;;;;;;;;;;4984704;28;20537;-81
2023/07/17 06:10:55;;;;;;;;;;;;;;;;;;5006485;28;20469;-81
2023/07/17 06:13:21;;;;;;;18.45;4.80;;;;;;;;;;4990164;28;19973;-81
2023/07/17 06:15:47;;;;;;;;;;;;;;;;;;4978607;28;20074;-76
2023/07/17 06:18:13;;;;;;;14.13;4.32;;;;;;;;;;4976392;28;19971;-81
2023/07/17 06:20:39;;;;;;;16.80;4.90;;;;;;;;;;4988543;28;20051;-81
2023/07/17 06:23:05;;;;;;;;;;;;;;;;;;4959649;28;20088;-83
2023/07/17 06:25:31;;;;;;;15.50;4.78;;;;;;;;;;4990168;28;19972;-82
2023/07/17 06:27:57;;;;;;;;;;;;;;;;;;4986156;28;20051;-83
2023/07/17 06:30:24;;;;;;;16.65;5.00;;;;;;;;;;4987646;28;19932;-83
2023/07/17 06:32:50;;;;;;;12.48;4.78;;;;;;;;;;5003855;28;20399;-81
2023/07/17 06:35:16;;;;;;;;;;;;;;;;;;4987746;28;20123;-88
2023/07/17 06:37:42;;;;;;;14.85;4.60;;;;;;;;;;4982912;28;20363;-82
2023/07/17 06:40:08;;;;;;;;;;;;;;;;;;4974793;28;20057;-82
2023/07/17 06:42:34;;;;;;;18.17;5.10;;;;;;;;;;4991072;28;20008;-87
2023/07/17 06:45:00;;;;;;;;;;;;;;;;;;4993100;28;20053;-88
2023/07/17 06:47:26;;;;;;;14.15;4.90;;;;;;;;;;5003857;28;20504;-86
2023/07/17 06:49:53;;;;;;;18.45;5.47;;;;;;;;;;4992989;28;20076;-83
2023/07/17 06:52:19;;;;;;;17.10;5.25;;;;;;;;;;5004987;28;20055;-81
2023/07/17 06:54:45;;;;;;;;;;;;;;;;;;4998416;28;20065;-82
2023/07/17 06:57:11;;;;;;;17.98;5.30;;;;;;;;;;4972265;28;19926;-79
2023/07/17 06:59:37;;;;;;;;;;;;;;;;;;4975098;28;20131;-85
2023/07/17 07:02:03;;;;;;;17.58;5.72;;;;;;;;;;4977030;28;19975;-86
2023/07/17 07:04:30;;;;;;;17.48;5.10;;;;;;;;;;4957341;28;20054;-86
2023/07/17 07:06:55;;;;;;;;;;;;;;;;;;4990710;28;20121;-85
2023/07/17 07:09:22;;;;;;;17.25;5.60;;;;;;;;;;5025906;28;20050;-85
2023/07/17 07:11:47;;;;;;;;;;;;;;;;;;4976387;28;20064;-86
2023/07/17 07:14:14;;;;;;;16.20;5.70;;;;;;;;;;5009262;28;20354;-85
2023/07/17 07:16:40;;;;;;;16.55;5.45;;;;;;;;;;4992678;28;20042;-85
2023/07/17 07:19:06;;;;;;;;;;;;;;;;;;4992448;28;20501;-86
2023/07/17 07:21:32;;;;;;;14.43;5.28;;;;;;;;;;5011965;28;19921;-86
2023/07/17 07:23:58;;;;;;;;;;;;;;;;;;4992844;28;20042;-84
2023/07/17 07:26:24;;;;;;;14.43;5.23;;;;;;;;;;4992714;28;19975;-85
2023/07/17 07:28:50;;;;;;;;;;;;;;;;;;4976523;28;20054;-86
2023/07/17 07:31:17;;;;;;;14.77;6.75;;;;;;;;;;4996220;28;19925;-86
2023/07/17 07:33:43;;;;;;;18.02;6.13;;;;;;;;;;4991834;28;20137;-86
2023/07/17 07:36:09;;;;;;;;;;;;;;;;;;5009506;28;20096;-86
2023/07/17 07:38:35;;;;;;;18.70;5.45;;;;;;;;;;5008234;28;19925;-86
2023/07/17 07:41:01;;;;;;;;;;;;;;;;;;4994958;28;20184;-86
2023/07/17 07:43:27;;;;;;;15.02;5.30;;;;;;;;;;5023010;28;20366;-86
2023/07/17 07:45:53;;;;;;;;;;;;;;;;;;4961190;28;20057;-85
2023/07/17 07:48:19;;;;;;;14.93;5.85;;;;;;;;;;4959421;28;19922;-85
2023/07/17 07:50:45;;;;;;;;;;;;;;;;;;4957262;28;20142;-84
2023/07/17 07:53:11;;;;;;;17.42;5.43;;;;;;;;;;5019373;28;20020;-81
2023/07/17 07:55:37;;;;;;;;;;;;;;;;;;4952730;28;20050;-83
2023/07/17 07:58:03;;;;;;;16.77;4.97;;;;;;;;;;5019229;28;19924;-83
2023/07/17 08:00:30;;;;;;;16.45;5.13;;;;;;;;;;4971050;28;20057;-86
2023/07/17 08:02:56;;;;;;;14.30;5.03;;;;;;;;;;4975764;28;20053;-85
2023/07/17 08:05:22;;;;;;;13.07;4.45;;;;;;;;;;4983637;28;20050;-84
2023/07/17 08:07:48;;;;;;;14.20;4.82;;;;;;;;;;4992974;28;20403;-85
2023/07/17 08:10:15;;;;;;;12.52;4.57;;;;;;;;;;4982578;28;20041;-86
2023/07/17 08:12:41;;;;;;;13.75;5.00;;;;;;;;;;4980516;28;20407;-85
2023/07/17 08:15:07;;;;;;;;;;;;;;;;;;5002889;28;20057;-86
2023/07/17 08:17:34;;;;;;;15.48;5.32;;;;;;;;;;4989209;28;19929;-86
2023/07/17 08:20:00;;;;;;;12.18;5.07;;;;;;;;;;5059883;28;20117;-85
2023/07/17 08:22:26;;;;;;;;;;;;;;;;;;4993988;28;20494;-86
2023/07/17 08:24:52;;;;;;;14.05;4.20;;;;;;;;;;4995589;28;19921;-86
2023/07/17 08:27:18;;;;;;;;;;;;;;;;;;4985399;28;20452;-86
2023/07/17 08:29:44;;;;;;;12.82;4.85;;;;;;;;;;5008232;28;19921;-86
2023/07/17 08:32:11;;;;;;;17.98;4.88;;;;;;;;;;4973989;28;20072;-86
2023/07/17 08:34:37;;;;;;;14.93;4.75;;;;;;;;;;4985277;28;20137;-85
2023/07/17 08:37:03;;;;;;;;;;;;;;;;;;4977199;28;20136;-86
2023/07/17 08:39:29;;;;;;;14.50;4.53;;;;;;;;;;5014307;28;19922;-86
2023/07/17 08:41:55;;;;;;;;;;;;;;;;;;5005754;28;20139;-86
2023/07/17 08:44:22;;;;;;;18.15;5.00;;;;;;;;;;4998088;28;19929;-86
2023/07/17 08:46:49;;;;;;;14.90;4.68;;;;;;;;;;4963404;28;20050;-86
2023/07/17 08:49:17;;;;;;;15.10;4.43;;;;;;;;;;4975459;28;20081;-86
2023/07/17 08:51:43;;;;;;;14.57;4.88;;;;;;;;;;4979423;28;20096;-86
2023/07/17 08:54:12;;;;;;;14.68;5.30;;;;;;;;;;4971697;28;20055;-86
2023/07/17 08:56:39;;;;;;;12.43;4.88;;;;;;;;;;4973150;28;20499;-87
2023/07/17 08:59:06;;;;;;;12.77;4.20;;;;;;;;;;4975809;28;20042;-85
2023/07/17 09:01:32;;;;;;;13.45;4.57;;;;;;;;;;4974482;28;20051;-86
2023/07/17 09:03:58;;;;;;;;;;;;;;;;;;4971574;28;20144;-86
2023/07/17 09:06:24;;;;;;;10.32;4.63;;;;;;;;;;5004809;28;20012;-86
2023/07/17 09:08:52;;;;;;;15.98;4.63;;;;;;;;;;4987957;28;20050;-86
2023/07/17 09:11:19;;;;;;;9.73;4.10;;;;;;;;;;4988029;28;20086;-86
2023/07/17 09:13:46;;;;;;;16.77;4.53;;;;;;;;;;4971930;28;20043;-86
2023/07/17 09:16:17;;;;;;;10.27;4.25;;;;;;;;;;4971848;28;20073;-86
2023/07/17 09:18:43;;;;;;;12.30;4.00;;;;;;;;;;4987961;28;20049;-86
2023/07/17 09:21:11;;;;;;;12.75;3.80;;;;;;;;;;4972851;28;20043;-85
2023/07/17 09:23:43;;;;;;;9.90;3.70;;;;;;;;;;5003970;28;20054;-81
2023/07/17 09:26:09;;;;;;;15.00;4.32;;;;;;;;;;5003950;28;20046;-80
2023/07/17 09:28:45;;;;;;;13.73;4.40;;;;;;;;;;4985331;28;20061;-81
2023/07/17 09:31:11;;;;;;;13.10;5.03;;;;;;;;;;5018516;28;20124;-84
2023/07/17 09:33:37;;;;;;;;;;;;;;;;;;5005195;28;20041;-84
2023/07/17 09:36:03;;;;;;;10.50;4.40;;;;;;;;;;5019506;28;19929;-83
2023/07/17 09:38:32;;;;;;;15.02;4.53;;;;;;;;;;4982144;28;20064;-86
2023/07/17 09:40:58;;;;;;;7.22;2.80;;;;;;;;;;5012040;28;20037;-86
2023/07/17 09:43:24;;;;;;;;;;;;;;;;;;5027275;28;20554;-85
2023/07/17 09:45:50;;;;;;;6.88;3.58;;;;;;;;;;5056019;28;19920;-85
2023/07/17 09:48:17;;;;;;;7.65;3.28;;;;;;;;;;5092050;28;20050;-85
2023/07/17 09:50:43;;;;;;;11.40;3.58;;;;;;;;;;5093756;28;20043;-85
2023/07/17 09:53:09;;;;;;;;;;;;;;;;;;5076517;28;20052;-83
2023/07/17 09:55:37;;;;;;;9.65;3.83;;;;;;;;;;5034774;28;19929;-83
2023/07/17 09:58:05;;;;;;;10.18;4.30;;;;;;;;;;4954430;28;20038;-83
2023/07/17 10:00:31;;;;;;;14.27;4.10;;;;;;;;;;4971319;28;20503;-83
2023/07/17 10:03:13;;;;;;;11.43;4.40;;;;;;;;;;4985098;28;20054;-84
2023/07/17 10:05:39;;;;;;;15.90;4.78;;;;;;;;;;4990989;28;20054;-83
2023/07/17 10:08:04;;;;;;;;;;;;;;;;;;4974387;28;20099;-83
2023/07/17 10:10:31;;;;;;;13.30;4.70;;;;;;;;;;5008057;28;19926;-85
2023/07/17 10:12:56;;;;;;;;;;;;;;;;;;4989655;28;20058;-86
2023/07/17 10:15:23;;;;;;;13.57;4.13;;;;;;;;;;4993892;28;20436;-87
2023/07/17 10:17:57;;;;;;;14.43;4.50;;;;;;;;;;4990596;28;20090;-87
2023/07/17 10:20:24;;;;;;;13.35;4.65;;;;;;;;;;5043373;28;20075;-85
2023/07/17 10:22:50;;;;;;;12.55;3.90;;;;;;;;;;5026603;28;20050;-85
2023/07/17 10:25:16;;;;;;;;;;;;;;;;;;4970183;28;20394;-86
2023/07/17 10:27:44;;;;;;;10.20;3.53;;;;;;;;;;4989756;28;19928;-87
2023/07/17 10:30:37;;;;;;;11.00;3.95;;;;;;;;;;4979861;28;20114;-88
2023/07/17 10:33:09;;;;;;;9.57;4.00;;;;;;;;;;4987004;28;20074;-87
2023/07/17 10:35:52;;;;;;;11.85;3.90;;;;;;;;;;4983776;28;20049;-88
2023/07/17 10:38:24;;;;;;;11.63;4.38;;;;;;;;;;4974636;28;20054;-87
2023/07/17 10:41:01;;;;;;;10.35;4.50;;;;;;;;;;5002865;28;20053;-86
2023/07/17 10:43:27;;;;;;;10.57;4.00;;;;;;;;;;4980078;28;20133;-86
2023/07/17 10:45:53;;;;;;;11.02;4.20;;;;;;;;;;4959956;28;20116;-86
2023/07/17 10:48:19;;;;;;;;;;;;;;;;;;4971059;28;20042;-88
2023/07/17 10:50:50;;;;;;;12.10;4.20;;;;;;;;;;5010678;28;19980;-87
2023/07/17 10:53:16;;;;;;;11.98;3.95;;;;;;;;;;4981010;28;20061;-84
2023/07/17 10:55:42;;;;;;;11.73;3.83;;;;;;;;;;4974258;28;20065;-79
2023/07/17 10:58:08;;;;;;;10.93;3.58;;;;;;;;;;5007718;28;20041;-82
2023/07/17 11:00:34;;;;;;;16.08;3.63;;;;;;;;;;5008534;28;20050;-80
2023/07/17 11:03:00;;;;;;;;;;;;;;;;;;4979293;28;20088;-82
2023/07/17 11:05:27;;;;;;;12.38;3.20;;;;;;;;;;5009437;28;19921;-81
2023/07/17 11:07:57;;;;;;;9.73;3.20;;;;;;;;;;4978049;28;20089;-81
2023/07/17 11:10:24;;;;;;;7.53;2.75;;;;;;;;;;4976656;28;20046;-79
2023/07/17 11:12:50;;;;;;;7.22;2.97;;;;;;;;;;4988220;28;20124;-82
2023/07/17 11:15:21;;;;;;;11.40;2.85;;;;;;;;;;4976554;28;20090;-82
2023/07/17 11:17:47;;;;;;;7.95;2.40;;;;;;;;;;4974241;28;20034;-80
2023/07/17 11:20:14;;;;;;;8.20;2.42;;;;;;;;;;4968939;28;20192;-80
2023/07/17 11:22:40;;;;;;;7.30;2.65;;;;;;;;;;4989603;28;20047;-80
2023/07/17 11:25:08;;;;;;;7.93;2.70;;;;;;;;;;4993139;28;20046;-81
2023/07/17 11:27:34;;;;;;;7.20;2.53;;;;;;;;;;4985700;28;20491;-80
2023/07/17 11:30:01;;;;;;;6.90;2.50;;;;;;;;;;4975161;28;20099;-83
2023/07/17 11:32:28;;;;;;;10.18;2.80;;;;;;;;;;5005782;28;20053;-83
2023/07/17 11:34:54;;;;;;;10.20;2.58;;;;;;;;;;5003629;28;20049;-83
2023/07/17 11:37:31;;;;;;;10.57;3.10;;;;;;;;;;4975988;28;20038;-82
2023/07/17 11:39:57;;;;;;;10.73;2.90;;;;;;;;;;4985060;28;20062;-83
2023/07/17 11:42:23;;;;;;;9.75;2.63;;;;;;;;;;4972492;28;20050;-83
2023/07/17 11:44:58;;;;;;;6.53;2.42;;;;;;;;;;4977410;28;20078;-81
2023/07/17 11:47:26;;;;;;;9.23;2.80;;;;;;;;;;4973071;28;20086;-82
2023/07/17 11:49:55;;;;;;;4.60;2.35;;;;;;;;;;4989156;28;20475;-83
2023/07/17 11:52:22;;;;;;;6.55;2.20;;;;;;;;;;4988987;28;20082;-80
2023/07/17 11:54:50;;;;;;;8.95;2.80;;;;;;;;;;5006407;28;20089;-83
2023/07/17 11:57:16;;;;;;;10.68;2.38;;;;;;;;;;5024554;28;20042;-80
2023/07/17 11:59:46;;;;;;;6.38;2.83;;;;;;;;;;4992167;28;20054;-85
2023/07/17 12:02:12;;;;;;;9.27;2.40;;;;;;;;;;4965196;28;20050;-85
2023/07/17 12:04:41;;;;;;;8.23;2.50;;;;;;;;;;4971892;28;20049;-85
2023/07/17 12:07:16;;;;;;;8.30;2.47;;;;;;;;;;4970801;28;20133;-84
2023/07/17 12:09:42;;;;;;;8.05;2.40;;;;;;;;;;4972015;28;20053;-85
2023/07/17 12:12:09;;;;;;;5.22;2.00;;;;;;;;;;4987289;28;20054;-85
2023/07/17 12:14:35;;;;;;;8.35;2.20;;;;;;;;;;4974361;28;20076;-85
2023/07/17 12:17:01;;;;;;;6.97;2.00;;;;;;;;;;4955921;28;20137;-85
2023/07/17 12:19:28;;;;;;;7.68;2.40;;;;;;;;;;4973227;28;20115;-85
2023/07/17 12:21:54;;;;;;;7.07;2.40;;;;;;;;;;4997011;28;20045;-85
2023/07/17 12:24:20;;;;;;;7.43;2.22;;;;;;;;;;4988708;28;20054;-85
2023/07/17 12:26:46;;;;;;;8.55;2.10;;;;;;;;;;4940443;28;20046;-84
2023/07/17 12:29:12;;;;;;;10.40;2.60;;;;;;;;;;5004423;28;20038;-85
2023/07/17 12:31:38;;;;;;;5.50;2.15;;;;;;;;;;5008578;28;20062;-85
2023/07/17 12:34:04;;;;;;;10.77;3.35;;;;;;;;;;4991848;28;20575;-86
2023/07/17 12:36:30;;;;;;;20.33;4.72;;;;;;;;;;4993554;28;20084;-89
2023/07/17 12:39:10;;;;;;;34.85;6.10;;;;;;;;;;4991399;28;20110;-78
2023/07/17 12:41:36;;;;;;;33.63;4.88;;;;;;;;;;4975412;28;20496;-77
2023/07/17 12:44:02;;;;;;;;;;;;;;;;;;4985550;28;20373;-79
2023/07/17 12:46:28;;;;;;;8.02;3.28;;;;;;;;;;5004711;28;19922;-80
2023/07/17 12:48:54;;;;;;;;;;;;;;;;;;4991566;28;20050;-80
2023/07/17 12:51:20;;;;;;;13.55;4.68;;;;;;;;;;5007178;28;20297;-80
2023/07/17 12:53:46;;;;;;;;;;;;;;;;;;4980217;28;20118;-81
2023/07/17 12:56:12;;;;;;;17.05;5.80;;;;;;;;;;4992954;28;20402;-81
2023/07/17 12:58:38;;;;;;;;;;;;;;;;;;4991394;28;20057;-81
2023/07/17 13:01:04;;;;;;;18.77;6.80;;;;;;;;;;5023911;28;20358;-81
2023/07/17 13:03:30;;;;;;;;;;;;;;;;;;4989163;28;20053;-81
2023/07/17 13:05:56;;;;;;;14.90;6.15;;;;;;;;;;5004046;28;19922;-81
2023/07/17 13:08:22;;;;;;;;;;;;;;;;;;4971573;28;20407;-81
2023/07/17 13:10:48;;;;;;;17.75;6.45;;;;;;;;;;5017753;28;19928;-81
2023/07/17 13:13:14;;;;;;;;;;;;;;;;;;4997328;28;20064;-82
2023/07/17 13:15:40;;;;;;;18.80;6.57;;;;;;;;;;5010062;28;19921;-81
2023/07/17 13:18:06;;;;;;;;;;;;;;;;;;5006981;28;20042;-81
2023/07/17 13:20:32;;;;;;;11.15;5.22;;;;;;;;;;5006201;28;20631;-81
2023/07/17 13:22:58;;;;;;;;;;;;;;;;;;4991209;28;20046;-81
2023/07/17 13:25:24;;;;;;;13.00;6.68;;;;;;;;;;5001047;28;19928;-81
2023/07/17 13:27:50;;;;;;;11.85;4.93;;;;;;;;;;4997346;28;20085;-81
2023/07/17 13:30:16;;;;;;;;;;;;;;;;;;4973652;28;20042;-81
2023/07/17 13:32:42;;;;;;;11.10;4.88;;;;;;;;;;4983970;28;19921;-81
2023/07/17 13:35:08;;;;;;;;;;;;;;;;;;4981828;28;20138;-81
2023/07/17 13:37:34;;;;;;;6.63;3.13;;;;;;;;;;5019152;28;20008;-81
2023/07/17 13:40:02;;;;;;;8.65;3.10;;;;;;;;;;4981870;28;20107;-80
2023/07/17 13:42:27;;;;;;;;;;;;;;;;;;4990267;28;20046;-81
2023/07/17 13:44:59;;;;;;;9.27;2.60;;;;;;;;;;5020371;28;19928;-81
2023/07/17 13:47:25;;;;;;;5.53;2.58;;;;;;;;;;4977824;28;20118;-80
2023/07/17 13:49:51;;;;;;;;;;;;;;;;;;4974104;28;20054;-81
2023/07/17 13:52:17;;;;;;;7.30;2.63;;;;;;;;;;5009853;28;19932;-81
2023/07/17 13:54:43;;;;;;;;;;;;;;;;;;4980037;28;20076;-81
2023/07/17 13:57:09;;;;;;;10.25;2.92;;;;;;;;;;5029888;28;20362;-81
2023/07/17 13:59:35;;;;;;;;;;;;;;;;;;4981811;28;20452;-80
2023/07/17 14:02:01;;;;;;;4.97;2.50;;;;;;;;;;5023214;28;19929;-81
2023/07/17 14:04:27;;;;;;;;;;;;;;;;;;5006019;28;20054;-81
2023/07/17 14:06:53;;;;;;;4.35;2.05;;;;;;;;;;5006114;28;19926;-80
2023/07/17 14:09:19;;;;;;;;;;;;;;;;;;4997463;28;20060;-81
2023/07/17 14:11:45;;;;;;;4.65;2.60;;;;;;;;;;5005342;28;19926;-80
2023/07/17 14:14:11;;;;;;;;;;;;;;;;;;4982510;28;20065;-80
2023/07/17 14:16:37;;;;;;;6.93;2.90;;;;;;;;;;4987983;28;19986;-81
2023/07/17 14:19:03;;;;;;;;;;;;;;;;;;4954332;28;20119;-81
2023/07/17 14:21:29;;;;;;;7.22;2.95;;;;;;;;;;5015559;28;20342;-81
2023/07/17 14:23:55;;;;;;;11.52;3.42;;;;;;;;;;4970372;28;20038;-81
2023/07/17 14:26:22;;;;;;;;;;;;;;;;;;5001381;28;20053;-79
2023/07/17 14:28:48;;;;;;;7.68;3.35;;;;;;;;;;4971129;28;19926;-81
2023/07/17 14:31:14;;;;;;;;;;;;;;;;;;5001023;28;20051;-82
2023/07/17 14:33:41;;;;;;;6.57;3.33;;;;;;;;;;5025139;28;20468;-81
2023/07/17 14:36:06;;;;;;;;;;;;;;;;;;4993628;28;20827;-81
2023/07/17 14:38:36;;;;;;;9.10;3.53;;;;;;;;;;5008401;28;20013;-81
2023/07/17 14:41:02;;;;;;;8.85;4.30;;;;;;;;;;4992809;28;20133;-75
2023/07/17 14:43:28;;;;;;;9.98;4.25;;;;;;;;;;4976367;28;20133;-76
2023/07/17 14:45:54;;;;;;;;;;;;;;;;;;4993604;28;20042;-77
2023/07/17 14:48:20;;;;;;;8.00;3.40;;;;;;;;;;5006656;28;19975;-82
2023/07/17 14:50:46;;;;;;;;;;;;;;;;;;4996671;28;20064;-82
2023/07/17 14:53:12;;;;;;;10.93;4.00;;;;;;;;;;5021519;28;19925;-81
2023/07/17 14:55:38;;;;;;;;;;;;;;;;;;4987696;28;20038;-82
2023/07/17 14:58:04;;;;;;;11.50;4.45;;;;;;;;;;5023227;28;19979;-82
2023/07/17 15:00:30;;;;;;;;;;;;;;;;;;4984347;28;20148;-82
2023/07/17 15:02:56;;;;;;;13.35;4.00;;;;;;;;;;5025191;28;20028;-82
2023/07/17 15:05:23;;;;;;;10.70;3.60;;;;;;;;;;4992769;28;20046;-82
2023/07/17 15:07:49;;;;;;;9.82;3.63;;;;;;;;;;4992449;28;20140;-81
2023/07/17 15:10:15;;;;;;;;;;;;;;;;;;4988280;28;20101;-82